createdAt,value
2022-09-25T00:04:39.801Z,98428.38
2022-09-25T00:10:34.377Z,98428.36
2022-09-25T00:16:39.552Z,98427.91
2022-09-25T00:22:48.731Z,98426.05
2022-09-25T00:29:15.453Z,98425.11
2022-09-25T00:36:02.235Z,98414.52
2022-09-25T00:42:54.732Z,98413.66
2022-09-25T00:49:23.022Z,98407.97
2022-09-25T00:55:51.060Z,98402.44
2022-09-25T01:01:41.165Z,98403.63
2022-09-25T01:08:03.871Z,98402.09
2022-09-25T01:15:04.656Z,98402.08
2022-09-25T01:22:01.819Z,98399.04
2022-09-25T01:28:57.679Z,98394.58
2022-09-25T01:35:39.019Z,98395.30
2022-09-25T01:41:56.658Z,98394.45
2022-09-25T01:48:19.448Z,98397.53
2022-09-25T01:54:28.744Z,98402.18
2022-09-25T02:00:25.880Z,98399.59
2022-09-25T02:06:53.668Z,98398.98
2022-09-25T02:13:05.637Z,98402.40
2022-09-25T02:19:32.963Z,98403.80
2022-09-25T02:25:41.474Z,98400.05
2022-09-25T02:31:47.506Z,98397.91
2022-09-25T02:38:32.688Z,98407.33
2022-09-25T02:45:04.214Z,98401.55
2022-09-25T02:51:57.465Z,98392.26
2022-09-25T02:58:08.094Z,98386.52
2022-09-25T03:04:17.040Z,98384.18
2022-09-25T03:10:29.676Z,98380.71
2022-09-25T03:17:25.803Z,98374.66
2022-09-25T03:23:24.340Z,98373.34
2022-09-25T03:29:50.309Z,98373.98
2022-09-25T03:36:25.920Z,98373.64
2022-09-25T03:42:30.624Z,98373.48
2022-09-25T03:48:53.700Z,98374.55
2022-09-25T03:55:38.033Z,98373.16
2022-09-25T04:02:15.958Z,98369.87
2022-09-25T04:08:54.862Z,98369.55
2022-09-25T04:15:22.137Z,98366.70
2022-09-25T04:21:35.732Z,98364.44
2022-09-25T04:28:22.039Z,98369.95
2022-09-25T04:35:16.703Z,98373.15
2022-09-25T04:42:09.033Z,98381.79
2022-09-25T04:49:04.058Z,98382.90
2022-09-25T04:55:44.637Z,98386.31
2022-09-25T05:02:28.978Z,98383.28
2022-09-25T05:09:01.179Z,98381.13
2022-09-25T05:15:17.824Z,98380.29
2022-09-25T05:22:05.438Z,98383.25
2022-09-25T05:28:24.854Z,98379.86
2022-09-25T05:34:48.237Z,98369.80
2022-09-25T05:41:44.974Z,98367.23
2022-09-25T05:48:40.348Z,98362.38
2022-09-25T05:55:42.707Z,98362.22
2022-09-25T06:02:05.966Z,98366.14
2022-09-25T06:07:41.468Z,98370.04
2022-09-25T06:14:15.934Z,98369.90
2022-09-25T06:20:50.502Z,98365.28
2022-09-25T06:26:59.308Z,98364.98
2022-09-25T06:33:22.507Z,98365.90
2022-09-25T06:39:14.626Z,98360.84
2022-09-25T06:45:24.387Z,98351.77
2022-09-25T06:51:18.607Z,98360.34
2022-09-25T06:57:20.971Z,98364.38
2022-09-25T07:02:47.770Z,98368.15
2022-09-25T07:08:05.963Z,98360.52
2022-09-25T07:14:02.356Z,98363.90
2022-09-25T07:20:12.305Z,98369.35
2022-09-25T07:26:23.662Z,98371.23
2022-09-25T07:32:29.957Z,98366.38
2022-09-25T07:38:37.482Z,98365.91
2022-09-25T07:44:48.348Z,98365.73
2022-09-25T07:50:42.861Z,98362.16
2022-09-25T07:56:02.283Z,98360.11
2022-09-25T08:02:35.255Z,98356.06
2022-09-25T08:09:10.660Z,98361.00
2022-09-25T08:14:49.167Z,98363.59
2022-09-25T08:21:10.152Z,98368.51
2022-09-25T08:27:21.282Z,98353.14
2022-09-25T08:32:29.242Z,98346.61
2022-09-25T08:37:45.321Z,98349.04
2022-09-25T08:43:41.457Z,98350.19
2022-09-25T08:49:26.818Z,98349.95
2022-09-25T08:54:54.708Z,98347.29
2022-09-25T09:01:16.686Z,98343.77
2022-09-25T09:07:26.264Z,98340.27
2022-09-25T09:13:26.034Z,98340.52
2022-09-25T09:19:48.908Z,98334.85
2022-09-25T09:26:43.106Z,98335.25
2022-09-25T09:32:56.921Z,98339.96
2022-09-25T09:38:32.226Z,98341.98
2022-09-25T09:44:49.153Z,98336.38
2022-09-25T09:51:56.186Z,98328.79
2022-09-25T09:58:25.214Z,98323.63
2022-09-25T10:04:37.741Z,98316.70
2022-09-25T10:11:16.659Z,98313.21
2022-09-25T10:16:52.556Z,98311.65
2022-09-25T10:22:43.993Z,98312.77
2022-09-25T10:28:54.555Z,98313.29
2022-09-25T10:34:43.690Z,98299.51
2022-09-25T10:41:09.298Z,98297.05
2022-09-25T10:46:53.090Z,98289.96
2022-09-25T10:52:05.539Z,98285.67
2022-09-25T10:58:23.153Z,98284.80
2022-09-25T11:04:00.496Z,98288.42
2022-09-25T11:09:56.287Z,98288.59
2022-09-25T11:16:45.001Z,98290.39
2022-09-25T11:22:19.775Z,98286.72
2022-09-25T11:28:07.807Z,98287.77
2022-09-25T11:34:35.653Z,98278.70
2022-09-25T11:40:51.902Z,98263.36
2022-09-25T11:47:10.237Z,98243.09
2022-09-25T11:52:53.845Z,98233.20
2022-09-25T11:59:00.607Z,98225.55
2022-09-25T12:05:37.200Z,98227.98
2022-09-25T12:12:01.145Z,98232.70
2022-09-25T12:17:52.410Z,98215.31
2022-09-25T12:23:22.309Z,98211.34
2022-09-25T12:29:29.462Z,98204.67
2022-09-25T12:35:38.845Z,98197.70
2022-09-25T12:41:54.004Z,98195.42
2022-09-25T12:47:47.222Z,98194.55
2022-09-25T12:54:08.564Z,98202.11
2022-09-25T12:59:52.643Z,98199.98
2022-09-25T13:06:09.824Z,98197.96
2022-09-25T13:12:14.514Z,98196.39
2022-09-25T13:17:31.912Z,98187.67
2022-09-25T13:23:03.515Z,98183.25
2022-09-25T13:29:51.259Z,98183.64
2022-09-25T13:35:19.596Z,98183.83
2022-09-25T13:40:46.400Z,98182.42
2022-09-25T13:46:10.469Z,98173.92
2022-09-25T13:51:47.975Z,98166.52
2022-09-25T13:57:41.726Z,98167.83
2022-09-25T14:03:10.283Z,98162.38
2022-09-25T14:08:55.536Z,98153.55
2022-09-25T14:14:26.655Z,98151.66
2022-09-25T14:19:39.580Z,98150.14
2022-09-25T14:24:58.591Z,98147.31
2022-09-25T14:30:13.992Z,98150.34
2022-09-25T14:35:48.308Z,98144.15
2022-09-25T14:41:28.696Z,98145.92
2022-09-25T14:47:08.366Z,98154.39
2022-09-25T14:52:53.612Z,98138.86
2022-09-25T14:58:38.178Z,98139.26
2022-09-25T15:03:59.330Z,98134.55
2022-09-25T15:09:47.276Z,98126.34
2022-09-25T15:15:31.111Z,98113.12
2022-09-25T15:20:52.463Z,98116.97
2022-09-25T15:26:43.279Z,98115.84
2022-09-25T15:32:18.587Z,98107.95
2022-09-25T15:37:58.315Z,98124.56
2022-09-25T15:43:21.268Z,98120.42
2022-09-25T15:48:51.669Z,98113.33
2022-09-25T15:54:25.281Z,98118.72
2022-09-25T15:59:34.598Z,98119.34
2022-09-25T16:04:57.443Z,98117.83
2022-09-25T16:10:52.039Z,98108.77
2022-09-25T16:15:58.961Z,98111.79
2022-09-25T16:22:06.317Z,98111.11
2022-09-25T16:28:06.299Z,98107.86
2022-09-25T16:34:36.469Z,98106.13
2022-09-25T16:40:49.480Z,98103.77
2022-09-25T16:46:34.797Z,98105.14
2022-09-25T16:52:03.748Z,98107.67
2022-09-25T16:57:56.857Z,98106.79
2022-09-25T17:03:59.371Z,98110.60
2022-09-25T17:10:38.305Z,98104.88
2022-09-25T17:16:55.825Z,98107.64
2022-09-25T17:22:30.197Z,98105.48
2022-09-25T17:28:01.599Z,98110.70
2022-09-25T17:33:38.300Z,98113.09
2022-09-25T17:39:39.259Z,98113.71
2022-09-25T17:45:16.315Z,98112.37
2022-09-25T17:51:34.032Z,98108.56
2022-09-25T17:57:31.559Z,98102.44
2022-09-25T18:03:31.011Z,98099.44
2022-09-25T18:09:00.270Z,98092.23
2022-09-25T18:14:58.578Z,98089.85
2022-09-25T18:20:31.270Z,98092.66
2022-09-25T18:26:06.041Z,98097.70
2022-09-25T18:31:28.386Z,98094.73
2022-09-25T18:36:33.512Z,98096.54
2022-09-25T18:41:52.575Z,98096.89
2022-09-25T18:46:57.586Z,98097.00
2022-09-25T18:52:32.104Z,98090.47
2022-09-25T18:57:51.528Z,98083.69
2022-09-25T19:03:23.716Z,98080.33
2022-09-25T19:08:47.341Z,98086.48
2022-09-25T19:14:52.264Z,98089.27
2022-09-25T19:20:04.482Z,98094.83
2022-09-25T19:25:56.274Z,98099.56
2022-09-25T19:31:29.092Z,98091.80
2022-09-25T19:37:06.848Z,98093.82
2022-09-25T19:42:35.957Z,98087.81
2022-09-25T19:48:39.378Z,98086.40
2022-09-25T19:53:49.896Z,98083.64
2022-09-25T19:58:52.129Z,98084.95
2022-09-25T20:04:34.125Z,98082.55
2022-09-25T20:10:02.897Z,98082.30
2022-09-25T20:15:34.165Z,98081.83
2022-09-25T20:21:09.525Z,98078.09
2022-09-25T20:26:41.387Z,98081.15
2022-09-25T20:32:05.535Z,98071.26
2022-09-25T20:37:15.071Z,98067.16
2022-09-25T20:42:51.359Z,98068.86
2022-09-25T20:48:24.992Z,98058.67
2022-09-25T20:53:57.004Z,98057.48
2022-09-25T20:59:06.638Z,98058.52
2022-09-25T21:04:58.063Z,98056.14
2022-09-25T21:11:15.344Z,98047.98
2022-09-25T21:17:14.362Z,98045.08
2022-09-25T21:22:44.689Z,98041.10
2022-09-25T21:28:05.902Z,98045.43
2022-09-25T21:33:39.550Z,98047.46
2022-09-25T21:39:37.474Z,98047.96
2022-09-25T21:45:51.233Z,98044.02
2022-09-25T21:51:02.021Z,98043.95
2022-09-25T21:56:24.429Z,98039.58
2022-09-25T22:02:40.460Z,98026.43
2022-09-25T22:08:24.224Z,98011.61
2022-09-25T22:14:36.712Z,98002.69
2022-09-25T22:20:27.589Z,98003.98
2022-09-25T22:26:03.700Z,98004.00
2022-09-25T22:31:51.350Z,97998.23
2022-09-25T22:37:55.675Z,97992.29
2022-09-25T22:44:12.804Z,97995.34
2022-09-25T22:49:18.266Z,98005.55
2022-09-25T22:54:40.203Z,98006.73
2022-09-25T23:00:00.566Z,98005.41
2022-09-25T23:06:22.587Z,98003.23
2022-09-25T23:11:32.551Z,97994.08
2022-09-25T23:17:08.554Z,97992.71
2022-09-25T23:23:43.375Z,97977.69
2022-09-25T23:28:51.232Z,97973.04
2022-09-25T23:34:13.887Z,97962.48
2022-09-25T23:39:56.597Z,97958.17
2022-09-25T23:46:09.137Z,97964.54
2022-09-25T23:51:48.613Z,97959.89
2022-09-25T23:57:44.361Z,97949.20
